Strona główna
METAR-TAF:

METAR-TAF

Lotnisko :

Auburn/Lewiston Municipal Airport

Auburn / Lewiston, Maine, Stany Zjednoczone

Szerokość geograficzna: 44-03N, Długość geograficzna: 070-17W, wysokość: 88 m

Aktualna obserwacja pogody

Raport powstał 1 godzina i 1 minut temu, godzina 23:56 UTC
Wiatr 6 kt od południe
Temperatura 6°C
Wilgotność 81%
Ciśnienie 1014 hPa
Widzialność: 16.1 km
Zachmurzenie całkowite na wysokości 5000 ft

METAR: KLEW 052356Z AUTO 17006KT 10SM OVC050 06/03 A2994 RMK AO2 SLP149 T00610028 10111 20061 50000

czas: 20:57 (00:57 UTC)


TAF: brakujący

Obserwacja i prognoza pogody dla ponad 4000 lotnisk (raport METAR i TAF).

Dostępne stacje oznaczono żółtymi i czerwonymi punktami na mapie.

Najedź kursorem aby zobaczyć nazwę stacji.

Kliknij aby zobaczyć obserwacje i prognozy pogody.

Aby zmienić mapę: kliknij na zielony przycisk z czarnym krzyżykiem, aby powiększyć; na zielony przycisk z myślnikiem, aby pomniejszyć; na zielone strzałki, aby przejść do map sąsiednich.


METAR-TAF: